»·PEaware :: N2265W KSNA-KCRQ

N2265W :: KSNA-KCRQ

FLIGHT INFORMATION

Flight Status: Arrived
Operator: Privately registered:
United States
More flights under this callsign
Pilot: Andrew Yaggie (8744)
Aircraft: CESSNA 172 SKYHAWK
(C172)
More flights by this aircraft type
Origin: KSNA John Wayne-Orange Co
United States
Destination: KCRQ McClellan-Palomar
United States
More flights between these airports :: More routes between these airports
Route: V23 OCN
File this flight plan on PilotEdge
Remarks: I-2 Rating
Altitude:
(Current/Filed)
5,000ft
Speed:
(Current/Filed)
135kts
Departed: 11-Jan-17 12:57 PM
Arrived: 11-Jan-17 01:53 PM
Distance/Time
Traveled:
44nm/0:55
Distance/Time
To Go:
Arrived

Flight Plot

Page will automatically refresh every two minutes.


Map Options




Map Legend


Flown Route
Filed Route
Departure Airport
Arrival Airport
Navaid (VOR, NDB)
Fix

Horizontal Profiles

Position Reports

Time Latitude Longitude Heading Altitude Ground
Speed
11-Jan-17 12:47 33.671354 -117.867953 15 60ft 0kts
11-Jan-17 12:48 33.671354 -117.867953 15 60ft 0kts
11-Jan-17 12:49 33.671354 -117.867953 15 60ft 0kts
11-Jan-17 12:50 33.671354 -117.867953 15 60ft 0kts
11-Jan-17 12:51 33.671354 -117.867953 15 60ft 0kts
11-Jan-17 12:52 33.671354 -117.867953 15 60ft 0kts
11-Jan-17 12:53 33.674135 -117.867096 25 60ft 15kts
11-Jan-17 12:54 33.677259 -117.865097 26 60ft 18kts
11-Jan-17 12:55 33.679978 -117.863607 306 60ft 0kts
11-Jan-17 12:56 33.679978 -117.863607 306 60ft 0kts
11-Jan-17 12:57 33.673815 -117.867725 196 258ft 82kts
11-Jan-17 12:58 33.649424 -117.871035 185 932ft 110kts
11-Jan-17 12:59 33.623039 -117.874323 185 1569ft 110kts
11-Jan-17 13:00 33.603347 -117.876759 185 2158ft 106kts
11-Jan-17 13:01 33.584810 -117.878899 185 2723ft 106kts
11-Jan-17 13:02 33.559378 -117.881052 175 3497ft 106kts
11-Jan-17 13:03 33.537571 -117.860498 126 4370ft 106kts
11-Jan-17 13:04 33.524445 -117.840962 126 5006ft 106kts
11-Jan-17 13:05 33.509950 -117.819194 126 5030ft 136kts
11-Jan-17 13:06 33.494598 -117.795951 126 5027ft 139kts
11-Jan-17 13:07 33.480944 -117.775258 126 5029ft 139kts
11-Jan-17 13:08 33.466466 -117.753311 126 5031ft 139kts
11-Jan-17 13:09 33.453574 -117.733768 126 5034ft 139kts
11-Jan-17 13:10 33.440112 -117.713363 126 5037ft 139kts
11-Jan-17 13:11 33.426658 -117.692974 126 5040ft 139kts
11-Jan-17 13:12 33.412947 -117.672180 126 5043ft 139kts
11-Jan-17 13:13 33.398954 -117.650958 126 5045ft 139kts
11-Jan-17 13:14 33.376896 -117.617532 126 5049ft 139kts
11-Jan-17 13:15 33.354403 -117.583439 126 5052ft 139kts
11-Jan-17 13:16 33.337473 -117.557777 126 5052ft 139kts
11-Jan-17 13:17 33.326357 -117.534721 102 5048ft 137kts
11-Jan-17 13:18 33.320643 -117.509580 101 5052ft 136kts
11-Jan-17 13:19 33.315134 -117.484710 100 5052ft 136kts
11-Jan-17 13:20 33.309176 -117.457880 101 5052ft 136kts
11-Jan-17 13:21 33.300062 -117.416799 100 5052ft 136kts
11-Jan-17 13:22 33.291314 -117.377320 100 5052ft 136kts
11-Jan-17 13:23 33.283751 -117.343438 101 5051ft 136kts
11-Jan-17 13:24 33.277994 -117.318999 101 5050ft 135kts
11-Jan-17 13:25 33.272561 -117.297129 101 5049ft 132kts
11-Jan-17 13:26 33.267101 -117.275953 101 5048ft 130kts
11-Jan-17 13:27 33.262111 -117.255008 98 5041ft 123kts
11-Jan-17 13:28 33.260160 -117.236230 101 5044ft 115kts
11-Jan-17 13:29 33.258212 -117.213687 101 5044ft 115kts
11-Jan-17 13:30 33.256691 -117.193168 101 5043ft 116kts
11-Jan-17 13:31 33.255330 -117.171932 101 5043ft 118kts
11-Jan-17 13:32 33.254116 -117.150288 101 5042ft 120kts
11-Jan-17 13:33 33.253008 -117.128410 101 5041ft 123kts
11-Jan-17 13:34 33.251899 -117.105498 101 5041ft 125kts
11-Jan-17 13:35 33.250785 -117.082867 101 5043ft 126kts
11-Jan-17 13:36 33.249610 -117.059395 101 5045ft 126kts
11-Jan-17 13:37 33.243420 -117.036377 151 4903ft 120kts
11-Jan-17 13:38 33.227763 -117.022640 149 4617ft 124kts
11-Jan-17 13:39 33.210098 -117.014416 182 4360ft 143kts
11-Jan-17 13:40 33.190695 -117.025982 208 4035ft 148kts
11-Jan-17 13:41 33.174093 -117.044586 225 3648ft 149kts
11-Jan-17 13:42 33.159387 -117.073430 245 3370ft 133kts
11-Jan-17 13:43 33.156405 -117.096474 274 3590ft 120kts
11-Jan-17 13:44 33.154361 -117.117578 259 3217ft 105kts
11-Jan-17 13:45 33.151504 -117.136815 264 2751ft 80kts
11-Jan-17 13:46 33.149211 -117.150183 267 2533ft 60kts
11-Jan-17 13:47 33.146982 -117.166279 263 2326ft 79kts
11-Jan-17 13:48 33.143233 -117.188954 262 1855ft 72kts
11-Jan-17 13:49 33.140094 -117.209515 260 1502ft 75kts
11-Jan-17 13:50 33.136188 -117.233355 256 1115ft 90kts
11-Jan-17 13:51 33.131888 -117.258408 272 743ft 70kts
11-Jan-17 13:52 33.129070 -117.274971 256 317ft 59kts
11-Jan-17 13:53 33.127774 -117.278002 92 309ft 0kts
11-Jan-17 13:54 33.127083 -117.277283 181 309ft 10kts

Navigation Log

Ident Type
1. KSNA Airport
2. OCN Navaid
3. KCRQ Airport